createdAt,value
2023-04-20T00:00:24.354Z,102353.06
2023-04-20T00:02:56.635Z,102347.69
2023-04-20T00:05:30.655Z,102342.31
2023-04-20T00:08:04.048Z,102342.19
2023-04-20T00:10:36.306Z,102349.06
2023-04-20T00:13:08.342Z,102322.03
2023-04-20T00:15:40.639Z,102338.25
2023-04-20T00:18:12.855Z,102326.81
2023-04-20T00:20:45.175Z,102334.25
2023-04-20T00:23:17.370Z,102331.56
2023-04-20T00:25:49.881Z,102335.69
2023-04-20T00:28:22.221Z,102336.53
2023-04-20T00:30:54.397Z,102332.03
2023-04-20T00:33:26.599Z,102332.81
2023-04-20T00:35:58.976Z,102338.78
2023-04-20T00:38:31.453Z,102340.47
2023-04-20T00:41:03.995Z,102336.69
2023-04-20T00:43:36.276Z,102330.50
2023-04-20T00:46:11.809Z,102329.44
2023-04-20T00:48:44.515Z,102322.38
2023-04-20T00:51:16.761Z,102332.59
2023-04-20T00:53:50.672Z,102311.72
2023-04-20T00:56:22.927Z,102314.16
2023-04-20T00:58:55.565Z,102315.03
2023-04-20T01:01:27.849Z,102306.38
2023-04-20T01:04:00.178Z,102302.94
2023-04-20T01:06:33.710Z,102292.53
2023-04-20T01:09:06.023Z,102285.66
2023-04-20T01:11:41.418Z,102274.38
2023-04-20T01:14:13.774Z,102276.06
2023-04-20T01:16:47.413Z,102270.09
2023-04-20T01:19:22.521Z,102267.47
2023-04-20T01:21:54.874Z,102269.22
2023-04-20T01:24:27.890Z,102263.19
2023-04-20T01:27:01.790Z,102256.19
2023-04-20T01:29:37.139Z,102251.13
2023-04-20T01:32:09.682Z,102252.69
2023-04-20T01:34:42.235Z,102245.59
2023-04-20T01:37:15.589Z,102240.44
2023-04-20T01:39:48.151Z,102245.72
2023-04-20T01:42:20.708Z,102238.88
2023-04-20T01:44:54.291Z,102229.41
2023-04-20T01:47:26.812Z,102222.44
2023-04-20T01:49:59.372Z,102216.56
2023-04-20T01:52:31.737Z,102216.63
2023-04-20T01:55:04.218Z,102215.72
2023-04-20T01:57:36.687Z,102221.00
2023-04-20T02:00:12.614Z,102220.28
2023-04-20T02:02:45.049Z,102220.28
2023-04-20T02:05:17.555Z,102215.91
2023-04-20T02:07:49.617Z,102204.59
2023-04-20T02:10:21.957Z,102195.84
2023-04-20T02:12:54.684Z,102202.84
2023-04-20T02:15:27.042Z,102192.53
2023-04-20T02:17:59.749Z,102197.81
2023-04-20T02:20:32.080Z,102202.25
2023-04-20T02:23:04.392Z,102197.03
2023-04-20T02:25:36.898Z,102198.63
2023-04-20T02:28:11.923Z,102210.78
2023-04-20T02:30:44.358Z,102205.31
2023-04-20T02:33:19.922Z,102205.94
2023-04-20T02:35:52.218Z,102204.22
2023-04-20T02:38:24.495Z,102199.19
2023-04-20T02:40:56.679Z,102197.69
2023-04-20T02:43:28.999Z,102189.63
2023-04-20T02:46:01.406Z,102197.72
2023-04-20T02:48:33.567Z,102182.97
2023-04-20T02:51:05.808Z,102184.53
2023-04-20T02:53:37.957Z,102185.34
2023-04-20T02:56:10.319Z,102193.06
2023-04-20T02:58:42.744Z,102191.38
2023-04-20T03:01:15.238Z,102187.84
2023-04-20T03:03:47.649Z,102182.78
2023-04-20T03:06:19.966Z,102182.75
2023-04-20T03:08:52.464Z,102178.31
2023-04-20T03:11:24.743Z,102183.69
2023-04-20T03:13:57.076Z,102190.66
2023-04-20T03:16:29.258Z,102196.78
2023-04-20T03:19:01.487Z,102198.56
2023-04-20T03:21:35.126Z,102189.03
2023-04-20T03:24:10.386Z,102182.88
2023-04-20T03:26:43.141Z,102175.22
2023-04-20T03:29:15.960Z,102175.19
2023-04-20T03:31:49.679Z,102179.53
2023-04-20T03:34:25.090Z,102176.84
2023-04-20T03:36:57.453Z,102185.28
2023-04-20T03:39:29.741Z,102180.03
2023-04-20T03:42:06.851Z,102169.66
2023-04-20T03:44:39.152Z,102164.44
2023-04-20T03:47:11.568Z,102170.59
2023-04-20T03:49:46.664Z,102168.78
2023-04-20T03:52:18.989Z,102166.22
2023-04-20T03:54:51.745Z,102171.34
2023-04-20T03:57:31.136Z,102169.56
2023-04-20T04:00:04.840Z,102174.69
2023-04-20T04:02:38.286Z,102182.50
2023-04-20T04:05:13.036Z,102180.63
2023-04-20T04:07:46.747Z,102177.94
2023-04-20T04:10:19.829Z,102179.41
2023-04-20T04:12:52.061Z,102175.78
2023-04-20T04:15:24.503Z,102167.88
2023-04-20T04:17:56.789Z,102169.28
2023-04-20T04:20:28.971Z,102171.91
2023-04-20T04:23:01.103Z,102173.59
2023-04-20T04:25:33.875Z,102182.19
2023-04-20T04:28:06.681Z,102171.66
2023-04-20T04:30:48.560Z,102165.50
2023-04-20T04:33:22.070Z,102171.59
2023-04-20T04:35:55.557Z,102182.06
2023-04-20T04:38:37.297Z,102180.44
2023-04-20T04:41:09.648Z,102182.16
2023-04-20T04:43:42.468Z,102180.44
2023-04-20T04:46:18.264Z,102188.31
2023-04-20T04:48:50.803Z,102189.16
2023-04-20T04:51:22.922Z,102195.22
2023-04-20T04:53:57.814Z,102182.28
2023-04-20T04:56:29.912Z,102178.91
2023-04-20T04:59:02.099Z,102177.38
2023-04-20T05:01:40.388Z,102175.59
2023-04-20T05:04:12.586Z,102176.44
2023-04-20T05:06:45.042Z,102178.31
2023-04-20T05:09:17.471Z,102178.47
2023-04-20T05:11:49.766Z,102177.81
2023-04-20T05:14:21.854Z,102182.00
2023-04-20T05:16:53.998Z,102187.22
2023-04-20T05:19:26.333Z,102180.00
2023-04-20T05:21:58.455Z,102186.03
2023-04-20T05:24:30.761Z,102183.47
2023-04-20T05:27:04.497Z,102186.06
2023-04-20T05:29:36.605Z,102185.22
2023-04-20T05:32:08.891Z,102192.19
2023-04-20T05:34:41.129Z,102188.81
2023-04-20T05:37:13.553Z,102190.50
2023-04-20T05:39:45.647Z,102189.69
2023-04-20T05:42:17.692Z,102187.94
2023-04-20T05:44:49.729Z,102192.38
2023-04-20T05:47:21.856Z,102188.22
2023-04-20T05:49:56.806Z,102183.78
2023-04-20T05:52:28.856Z,102188.88
2023-04-20T05:55:00.989Z,102198.72
2023-04-20T05:57:33.035Z,102196.88
2023-04-20T06:00:06.213Z,102195.16
2023-04-20T06:02:38.501Z,102191.78
2023-04-20T06:05:11.586Z,102198.72
2023-04-20T06:07:43.832Z,102201.31
2023-04-20T06:10:16.120Z,102198.88
2023-04-20T06:12:48.378Z,102208.59
2023-04-20T06:15:20.689Z,102198.22
2023-04-20T06:17:52.939Z,102201.88
2023-04-20T06:20:25.225Z,102196.72
2023-04-20T06:22:57.367Z,102206.56
2023-04-20T06:25:29.614Z,102197.16
2023-04-20T06:28:01.772Z,102195.78
2023-04-20T06:30:34.675Z,102195.84
2023-04-20T06:33:08.044Z,102191.53
2023-04-20T06:35:41.792Z,102184.69
2023-04-20T06:38:24.270Z,102192.28
2023-04-20T06:40:59.005Z,102196.63
2023-04-20T06:43:31.836Z,102194.63
2023-04-20T06:46:04.572Z,102202.50
2023-04-20T06:48:38.978Z,102199.25
2023-04-20T06:51:14.184Z,102198.31
2023-04-20T06:53:46.650Z,102199.09
2023-04-20T06:56:18.910Z,102195.03
2023-04-20T06:58:51.251Z,102204.78
2023-04-20T07:01:23.473Z,102197.34
2023-04-20T07:04:48.819Z,102189.63
2023-04-20T07:07:21.442Z,102195.19
2023-04-20T07:09:54.892Z,102182.59
2023-04-20T07:12:27.098Z,102181.72
2023-04-20T07:14:59.453Z,102192.13
2023-04-20T07:17:32.748Z,102181.59
2023-04-20T07:20:09.547Z,102189.56
2023-04-20T07:22:41.907Z,102196.34
2023-04-20T07:25:14.578Z,102190.13
2023-04-20T07:27:46.980Z,102186.84
2023-04-20T07:30:19.203Z,102188.50
2023-04-20T07:32:51.396Z,102186.16
2023-04-20T07:35:23.976Z,102186.22
2023-04-20T07:37:56.336Z,102177.22
2023-04-20T07:40:28.992Z,102187.31
2023-04-20T07:43:03.862Z,102186.34
2023-04-20T07:45:36.102Z,102202.28
2023-04-20T07:48:09.857Z,102195.47
2023-04-20T07:50:42.391Z,102203.66
2023-04-20T07:53:14.562Z,102200.16
2023-04-20T07:55:47.413Z,102203.59
2023-04-20T07:58:21.835Z,102201.16
2023-04-20T08:00:53.906Z,102208.75
2023-04-20T08:06:16.342Z,102212.22
2023-04-20T08:08:48.654Z,102214.06
2023-04-20T08:11:21.853Z,102206.28
2023-04-20T08:13:55.022Z,102208.47
2023-04-20T08:16:28.334Z,102213.53
2023-04-20T08:19:01.948Z,102206.00
2023-04-20T08:21:35.657Z,102200.31
2023-04-20T08:24:08.986Z,102210.81
2023-04-20T08:26:41.108Z,102219.59
2023-04-20T08:29:13.336Z,102219.28
2023-04-20T08:31:45.642Z,102219.78
2023-04-20T08:34:19.139Z,102230.22
2023-04-20T08:36:51.585Z,102217.06
2023-04-20T08:39:24.489Z,102220.72
2023-04-20T08:41:57.552Z,102221.78
2023-04-20T08:44:29.775Z,102217.56
2023-04-20T08:47:03.275Z,102227.25
2023-04-20T08:49:36.352Z,102224.19
2023-04-20T08:52:13.920Z,102229.22
2023-04-20T08:54:56.122Z,102226.84
2023-04-20T08:57:29.206Z,102229.75
2023-04-20T09:00:05.799Z,102240.22
2023-04-20T09:02:53.536Z,102229.03
2023-04-20T09:05:32.333Z,102234.16
2023-04-20T09:08:05.446Z,102233.75
2023-04-20T09:10:43.814Z,102231.09
2023-04-20T09:13:23.639Z,102231.38
2023-04-20T09:15:55.865Z,102226.53
2023-04-20T09:18:27.958Z,102231.31
2023-04-20T09:21:09.761Z,102229.75
2023-04-20T09:23:42.005Z,102230.47
2023-04-20T09:26:19.133Z,102230.50
2023-04-20T09:28:51.309Z,102242.69
2023-04-20T09:31:24.681Z,102254.91
2023-04-20T09:34:03.176Z,102259.97
2023-04-20T09:36:37.691Z,102257.06
2023-04-20T09:39:21.600Z,102253.47
2023-04-20T09:41:53.635Z,102251.88
2023-04-20T09:44:25.912Z,102253.72
2023-04-20T09:46:58.656Z,102248.56
2023-04-20T09:49:30.895Z,102245.66
2023-04-20T09:52:04.734Z,102238.78
2023-04-20T09:54:38.759Z,102250.19
2023-04-20T09:57:13.112Z,102245.50
2023-04-20T09:59:47.719Z,102244.69
2023-04-20T10:02:19.949Z,102231.75
2023-04-20T10:04:57.569Z,102229.66
2023-04-20T10:07:32.118Z,102215.69
2023-04-20T10:10:12.880Z,102206.34
2023-04-20T10:12:53.100Z,102210.94
2023-04-20T10:15:40.682Z,102204.03
2023-04-20T10:18:21.252Z,102202.34
2023-04-20T10:21:07.178Z,102208.38
2023-04-20T10:23:50.616Z,102201.91
2023-04-20T10:26:23.644Z,102209.16
2023-04-20T10:28:55.827Z,102207.13
2023-04-20T10:31:38.133Z,102207.16
2023-04-20T10:34:10.361Z,102204.81
2023-04-20T10:36:42.966Z,102207.69
2023-04-20T10:39:21.039Z,102216.81
2023-04-20T10:42:03.674Z,102210.69
2023-04-20T10:44:36.030Z,102218.63
2023-04-20T10:47:08.149Z,102201.09
2023-04-20T10:49:40.378Z,102205.47
2023-04-20T10:52:13.345Z,102196.72
2023-04-20T10:54:46.687Z,102190.59
2023-04-20T10:57:18.805Z,102193.19
2023-04-20T10:59:50.999Z,102191.44
2023-04-20T11:02:23.750Z,102191.13
2023-04-20T11:05:01.158Z,102184.59
2023-04-20T11:07:33.610Z,102184.97
2023-04-20T11:10:08.202Z,102168.03
2023-04-20T11:12:40.466Z,102182.00
2023-04-20T11:15:13.638Z,102176.38
2023-04-20T11:21:42.960Z,102200.75
2023-04-20T11:24:27.032Z,102183.22
2023-04-20T11:26:59.692Z,102182.78
2023-04-20T11:29:33.752Z,102185.47
2023-04-20T11:32:11.323Z,102170.78
2023-04-20T11:34:46.104Z,102171.38
2023-04-20T11:37:20.130Z,102177.81
2023-04-20T11:40:09.801Z,102174.97
2023-04-20T11:42:41.988Z,102166.84
2023-04-20T11:45:18.189Z,102159.47
2023-04-20T11:47:51.293Z,102161.94
2023-04-20T11:50:23.917Z,102149.16
2023-04-20T11:52:56.043Z,102157.81
2023-04-20T11:55:28.218Z,102144.47
2023-04-20T11:58:00.436Z,102132.03
2023-04-20T12:00:32.650Z,102123.53
2023-04-20T12:03:12.553Z,102129.25
2023-04-20T12:05:44.766Z,102131.97
2023-04-20T12:08:17.506Z,102136.25
2023-04-20T12:14:42.003Z,102129.25
2023-04-20T12:17:14.117Z,102125.97
2023-04-20T12:19:46.226Z,102118.16
2023-04-20T12:22:23.638Z,102126.59
2023-04-20T12:24:55.908Z,102131.78
2023-04-20T12:27:28.336Z,102125.25
2023-04-20T12:30:00.686Z,102122.81
2023-04-20T12:32:36.427Z,102104.00
2023-04-20T12:35:09.772Z,102114.28
2023-04-20T12:37:41.873Z,102124.38
2023-04-20T12:40:14.173Z,102120.66
2023-04-20T12:42:46.495Z,102108.38
2023-04-20T12:45:18.870Z,102116.16
2023-04-20T12:48:11.440Z,102109.41
2023-04-20T12:50:43.965Z,102112.59
2023-04-20T12:53:16.067Z,102118.34
2023-04-20T12:55:49.540Z,102110.69
2023-04-20T12:58:28.115Z,102115.19
2023-04-20T13:01:00.527Z,102100.66
2023-04-20T13:03:33.090Z,102105.59
2023-04-20T13:06:06.336Z,102113.13
2023-04-20T13:08:38.447Z,102093.38
2023-04-20T13:11:15.670Z,102104.38
2023-04-20T13:13:47.750Z,102100.22
2023-04-20T13:16:19.872Z,102098.78
2023-04-20T13:18:52.153Z,102099.81
2023-04-20T13:25:26.848Z,102101.19
2023-04-20T13:27:59.706Z,102091.25
2023-04-20T13:30:32.570Z,102096.81
2023-04-20T13:33:04.720Z,102102.06
2023-04-20T13:35:37.396Z,102096.28
2023-04-20T13:38:09.490Z,102091.00
2023-04-20T13:40:44.357Z,102096.06
2023-04-20T13:43:16.732Z,102106.56
2023-04-20T13:45:50.462Z,102116.22
2023-04-20T13:48:22.717Z,102111.94
2023-04-20T13:50:54.948Z,102105.97
2023-04-20T13:53:27.654Z,102110.50
2023-04-20T13:55:59.954Z,102100.91
2023-04-20T13:58:32.250Z,102105.28
2023-04-20T14:01:17.750Z,102100.94
2023-04-20T14:03:52.001Z,102103.69
2023-04-20T14:06:24.328Z,102101.97
2023-04-20T14:08:56.551Z,102098.47
2023-04-20T14:11:28.743Z,102101.97
2023-04-20T14:14:01.118Z,102100.22
2023-04-20T14:16:33.524Z,102100.22
2023-04-20T14:19:05.680Z,102103.75
2023-04-20T14:21:38.013Z,102098.50
2023-04-20T14:24:11.716Z,102099.31
2023-04-20T14:26:44.037Z,102103.72
2023-04-20T14:29:16.851Z,102098.44
2023-04-20T14:32:11.161Z,102088.81
2023-04-20T14:34:43.259Z,102087.03
2023-04-20T14:37:15.598Z,102094.03
2023-04-20T14:39:47.799Z,102085.25
2023-04-20T14:42:19.966Z,102091.28
2023-04-20T14:45:41.700Z,102087.59
2023-04-20T14:48:13.935Z,102081.56
2023-04-20T14:50:46.051Z,102080.72
2023-04-20T14:53:18.105Z,102085.94
2023-04-20T14:55:51.491Z,102084.84
2023-04-20T14:58:23.925Z,102082.25
2023-04-20T15:00:56.081Z,102077.09
2023-04-20T15:03:28.404Z,102078.81
2023-04-20T15:06:02.607Z,102079.72
2023-04-20T15:08:34.914Z,102081.41
2023-04-20T15:11:09.183Z,102085.72
2023-04-20T15:13:42.554Z,102076.88
2023-04-20T15:16:15.152Z,102067.19
2023-04-20T15:18:47.367Z,102073.25
2023-04-20T15:21:23.648Z,102076.69
2023-04-20T15:23:55.779Z,102084.59
2023-04-20T15:26:28.059Z,102089.69
2023-04-20T15:29:00.317Z,102089.47
2023-04-20T15:31:32.565Z,102096.56
2023-04-20T15:34:04.756Z,102089.59
2023-04-20T15:36:36.907Z,102083.50
2023-04-20T15:39:53.735Z,102083.56
2023-04-20T15:42:26.484Z,102082.56
2023-04-20T15:44:58.632Z,102080.88
2023-04-20T15:48:09.363Z,102081.66
2023-04-20T15:50:41.632Z,102082.56
2023-04-20T15:53:13.882Z,102075.63
2023-04-20T15:55:46.979Z,102080.88
2023-04-20T15:58:19.230Z,102079.91
2023-04-20T16:00:51.410Z,102071.16
2023-04-20T16:03:23.952Z,102071.16
2023-04-20T16:05:56.148Z,102079.06
2023-04-20T16:08:28.281Z,102085.13
2023-04-20T16:11:00.655Z,102076.38
2023-04-20T16:13:33.078Z,102080.75
2023-04-20T16:16:05.484Z,102076.28
2023-04-20T16:18:37.782Z,102064.88
2023-04-20T16:21:10.005Z,102071.94
2023-04-20T16:23:42.148Z,102071.03
2023-04-20T16:26:14.369Z,102073.59
2023-04-20T16:28:46.665Z,102078.72
2023-04-20T16:31:20.584Z,102072.56
2023-04-20T16:33:53.056Z,102066.44
2023-04-20T16:36:25.858Z,102072.56
2023-04-20T16:38:58.081Z,102068.97
2023-04-20T16:41:30.225Z,102072.53
2023-04-20T16:44:02.328Z,102070.72
2023-04-20T16:46:34.558Z,102063.84
2023-04-20T16:49:06.800Z,102067.31
2023-04-20T16:51:39.076Z,102071.69
2023-04-20T16:54:11.845Z,102053.44
2023-04-20T16:57:09.624Z,102047.41
2023-04-20T16:59:42.187Z,102047.50
2023-04-20T17:02:16.108Z,102037.00
2023-04-20T17:04:48.216Z,102039.72
2023-04-20T17:07:20.471Z,102031.88
2023-04-20T17:11:09.189Z,102038.09
2023-04-20T17:13:41.351Z,102028.59
2023-04-20T17:16:13.531Z,102040.88
2023-04-20T17:18:45.778Z,102032.97
2023-04-20T17:21:18.185Z,102029.47
2023-04-20T17:23:50.345Z,102033.78
2023-04-20T17:26:22.371Z,102030.22
2023-04-20T17:28:54.719Z,102033.72
2023-04-20T17:31:26.874Z,102041.59
2023-04-20T17:33:59.877Z,102045.13
2023-04-20T17:36:32.150Z,102050.38
2023-04-20T17:39:04.400Z,102059.13
2023-04-20T17:41:36.544Z,102047.75
2023-04-20T17:44:11.592Z,102046.78
2023-04-20T17:46:44.318Z,102048.47
2023-04-20T17:49:16.471Z,102053.75
2023-04-20T17:51:48.520Z,102060.78
2023-04-20T17:54:20.831Z,102063.41
2023-04-20T17:56:53.063Z,102062.50
2023-04-20T17:59:25.177Z,102068.59
2023-04-20T18:01:57.327Z,102064.16
2023-04-20T18:04:29.738Z,102065.03
2023-04-20T18:07:02.021Z,102068.50
2023-04-20T18:09:34.167Z,102058.88
2023-04-20T18:12:13.342Z,102060.63
2023-04-20T18:14:46.339Z,102046.78
2023-04-20T18:17:18.559Z,102048.50
2023-04-20T18:19:50.761Z,102051.16
2023-04-20T18:22:24.393Z,102045.03
2023-04-20T18:24:56.521Z,102043.28
2023-04-20T18:27:28.622Z,102048.50
2023-04-20T18:30:01.787Z,102045.88
2023-04-20T18:32:36.326Z,102048.50
2023-04-20T18:35:09.718Z,102050.22
2023-04-20T18:37:41.889Z,102041.50
2023-04-20T18:40:16.093Z,102046.75
2023-04-20T18:42:50.383Z,102046.75
2023-04-20T18:45:24.086Z,102047.66
2023-04-20T18:47:58.321Z,102045.91
2023-04-20T18:50:30.438Z,102044.16
2023-04-20T18:53:02.557Z,102045.91
2023-04-20T18:55:34.847Z,102049.38
2023-04-20T18:58:07.143Z,102048.50
2023-04-20T19:00:42.202Z,102052.91
2023-04-20T19:03:14.490Z,102056.41
2023-04-20T19:05:46.917Z,102047.69
2023-04-20T19:08:18.985Z,102050.28
2023-04-20T19:10:51.442Z,102044.16
2023-04-20T19:13:24.024Z,102043.28
2023-04-20T19:15:59.510Z,102041.53
2023-04-20T19:18:31.713Z,102045.88
2023-04-20T19:21:04.108Z,102049.34
2023-04-20T19:23:36.410Z,102040.63
2023-04-20T19:26:08.894Z,102047.63
2023-04-20T19:28:41.008Z,102045.88
2023-04-20T19:31:13.838Z,102051.13
2023-04-20T19:33:46.113Z,102042.34
2023-04-20T19:36:19.461Z,102047.56
2023-04-20T19:38:51.596Z,102034.41
2023-04-20T19:41:23.709Z,102031.81
2023-04-20T19:43:57.084Z,102038.78
2023-04-20T19:49:39.362Z,102037.81
2023-04-20T19:52:14.544Z,102049.09
2023-04-20T19:54:47.764Z,102044.66
2023-04-20T19:57:19.935Z,102037.63
2023-04-20T19:59:52.242Z,102034.06
2023-04-20T20:02:24.645Z,102039.22
2023-04-20T20:04:57.059Z,102038.34
2023-04-20T20:07:29.194Z,102033.94
2023-04-20T20:10:01.701Z,102032.16
2023-04-20T20:12:33.987Z,102034.72
2023-04-20T20:17:58.790Z,102036.44
2023-04-20T20:20:34.547Z,102035.53
2023-04-20T20:23:10.619Z,102024.16
2023-04-20T20:25:42.870Z,102032.00
2023-04-20T20:28:15.555Z,102038.97
2023-04-20T20:33:38.662Z,102031.06
2023-04-20T20:36:10.856Z,102026.66
2023-04-20T20:38:43.767Z,102025.75
2023-04-20T20:41:16.767Z,102021.41
2023-04-20T20:43:51.039Z,102024.00
2023-04-20T20:46:23.298Z,102030.16
2023-04-20T20:48:56.476Z,102021.38
2023-04-20T20:51:29.158Z,102021.31
2023-04-20T20:54:19.465Z,102024.72
2023-04-20T20:56:51.700Z,102015.94
2023-04-20T20:59:40.185Z,102016.81
2023-04-20T21:05:37.261Z,102012.44
2023-04-20T21:08:13.124Z,102014.19
2023-04-20T21:10:45.445Z,102001.06
2023-04-20T21:13:19.432Z,102004.56
2023-04-20T21:15:51.993Z,102002.81
2023-04-20T21:18:24.315Z,102003.66
2023-04-20T21:20:56.477Z,102004.56
2023-04-20T21:23:28.598Z,101995.88
2023-04-20T21:26:00.844Z,101999.38
2023-04-20T21:28:34.072Z,102005.44
2023-04-20T21:31:12.575Z,102001.09
2023-04-20T21:33:44.629Z,102005.38
2023-04-20T21:36:16.744Z,101997.53
2023-04-20T21:38:49.069Z,102002.78
2023-04-20T21:41:22.093Z,102006.25
2023-04-20T21:43:54.236Z,102005.38
2023-04-20T21:46:26.429Z,102004.44
2023-04-20T21:48:58.659Z,102007.00
2023-04-20T21:51:32.096Z,102009.63
2023-04-20T21:54:04.283Z,102002.66
2023-04-20T21:56:36.378Z,101999.22
2023-04-20T21:59:08.548Z,102004.50
2023-04-20T22:01:40.810Z,102000.06
2023-04-20T22:04:14.081Z,101999.13
2023-04-20T22:06:47.088Z,102000.84
2023-04-20T22:09:20.059Z,101997.41
2023-04-20T22:11:56.104Z,102001.75
2023-04-20T22:14:28.464Z,101999.19
2023-04-20T22:17:01.970Z,102001.72
2023-04-20T22:19:34.131Z,101997.34
2023-04-20T22:22:06.380Z,102002.63
2023-04-20T22:24:38.533Z,101997.41
2023-04-20T22:31:06.905Z,102003.38
2023-04-20T22:33:39.149Z,101994.69
2023-04-20T22:36:11.271Z,102000.84
2023-04-20T22:38:43.545Z,101998.22
2023-04-20T22:41:17.421Z,101991.22
2023-04-20T22:43:49.821Z,101988.53
2023-04-20T22:46:22.173Z,101994.69
2023-04-20T22:48:54.512Z,101990.25
2023-04-20T22:51:29.151Z,101992.84
2023-04-20T22:54:02.724Z,101993.72
2023-04-20T22:56:35.382Z,101985.03
2023-04-20T22:59:07.677Z,101991.13
2023-04-20T23:01:39.781Z,101990.31
2023-04-20T23:04:12.027Z,101988.56
2023-04-20T23:06:45.611Z,101985.00
2023-04-20T23:09:21.072Z,101985.88
2023-04-20T23:11:53.980Z,101983.41
2023-04-20T23:14:28.218Z,101980.63
2023-04-20T23:17:00.373Z,101985.78
2023-04-20T23:19:33.596Z,101975.34
2023-04-20T23:22:09.122Z,101970.97
2023-04-20T23:24:41.227Z,101975.22
2023-04-20T23:27:13.380Z,101975.22
2023-04-20T23:29:45.608Z,101979.63
2023-04-20T23:32:17.763Z,101977.00
2023-04-20T23:34:49.812Z,101971.72
2023-04-20T23:37:21.929Z,101972.53
2023-04-20T23:39:53.985Z,101975.16
2023-04-20T23:42:26.069Z,101968.22
2023-04-20T23:45:00.353Z,101970.03
2023-04-20T23:47:32.765Z,101974.31
2023-04-20T23:50:10.433Z,101969.94
2023-04-20T23:52:42.605Z,101962.09
2023-04-20T23:55:14.932Z,101957.78
2023-04-20T23:58:09.224Z,101963.91
